Time;durP1;ratioP1;P1;durP2;ratioP2;P2;SDS_P1;SDS_P2;PMS_P1;PMS_P2;Temp;Humidity;BMP_temperature;BMP_pressure;BME280_temperature;BME280_humidity;BME280_pressure;Samples;Min_cycle;Max_cycle;Signal;HPM_P1;HPM_P2
2023/04/16 00:01:39;;;;;;;39.22;17.08;;;8.40;99.90;;;;;;5050577;28;20131;-66
2023/04/16 00:04:05;;;;;;;34.28;16.38;;;8.40;99.90;;;;;;5051658;28;20478;-66
2023/04/16 00:06:31;;;;;;;38.15;16.63;;;8.40;99.90;;;;;;5052174;28;20079;-66
2023/04/16 00:08:57;;;;;;;39.78;17.63;;;8.40;99.90;;;;;;5050812;28;20049;-66
2023/04/16 00:11:23;;;;;;;41.38;17.73;;;8.40;99.90;;;;;;5050714;28;20072;-66
2023/04/16 00:13:48;;;;;;;44.17;20.17;;;8.40;99.90;;;;;;5050793;28;20083;-66
2023/04/16 00:16:14;;;;;;;43.03;16.70;;;8.40;99.90;;;;;;5051252;28;20045;-66
2023/04/16 00:18:40;;;;;;;39.45;17.50;;;8.40;99.90;;;;;;5051261;28;20138;-66
2023/04/16 00:21:06;;;;;;;41.10;19.20;;;8.50;99.90;;;;;;5050612;28;20506;-66
2023/04/16 00:23:32;;;;;;;45.28;17.60;;;8.40;99.90;;;;;;5050504;28;20040;-66
2023/04/16 00:25:58;;;;;;;33.85;16.33;;;8.40;99.90;;;;;;5051244;28;20477;-67
2023/04/16 00:28:26;;;;;;;39.92;15.65;;;8.40;99.90;;;;;;5051048;28;20134;-66
2023/04/16 00:30:52;;;;;;;34.60;16.15;;;8.40;99.90;;;;;;5034623;28;20508;-66
2023/04/16 00:33:18;;;;;;;37.10;17.55;;;8.40;99.90;;;;;;5050935;28;20128;-66
2023/04/16 00:35:47;;;;;;;37.40;16.45;;;8.40;99.90;;;;;;5051359;28;20119;-66
2023/04/16 00:38:13;;;;;;;38.15;17.35;;;8.40;99.90;;;;;;5052670;28;20037;-66
2023/04/16 00:40:39;;;;;;;36.90;16.45;;;8.50;99.90;;;;;;5050393;28;20053;-66
2023/04/16 00:43:05;;;;;;;33.80;15.43;;;8.40;99.90;;;;;;5050071;28;20118;-66
2023/04/16 00:45:31;;;;;;;34.30;15.13;;;8.40;99.90;;;;;;5049779;28;20456;-66
2023/04/16 00:47:59;;;;;;;37.67;16.70;;;8.40;99.90;;;;;;5051102;28;20045;-66
2023/04/16 00:50:25;;;;;;;29.50;15.07;;;8.40;99.90;;;;;;5032779;28;20112;-66
2023/04/16 00:52:50;;;;;;;38.70;17.13;;;8.40;99.90;;;;;;5034414;28;20433;-66
2023/04/16 00:55:17;;;;;;;37.38;16.23;;;8.40;99.90;;;;;;5033769;28;20041;-66
2023/04/16 00:57:44;;;;;;;39.80;17.67;;;8.40;99.90;;;;;;5049974;28;20398;-66
2023/04/16 01:00:11;;;;;;;31.88;15.23;;;8.40;99.90;;;;;;5051935;28;20486;-66
2023/04/16 01:02:37;;;;;;;34.50;17.27;;;8.50;99.90;;;;;;5051305;28;20049;-66
2023/04/16 01:05:03;;;;;;;30.65;17.20;;;8.50;99.90;;;;;;5049922;28;20033;-66
2023/04/16 01:07:30;;;;;;;40.83;16.85;;;8.40;99.90;;;;;;5051652;28;20040;-66
2023/04/16 01:09:56;;;;;;;28.35;15.73;;;8.40;99.90;;;;;;5050765;28;20043;-66
2023/04/16 01:12:22;;;;;;;36.95;16.02;;;8.40;99.90;;;;;;5032939;28;20124;-66
2023/04/16 01:14:47;;;;;;;35.53;15.85;;;8.50;99.90;;;;;;5051853;28;20382;-66
2023/04/16 01:17:13;;;;;;;29.88;15.88;;;8.40;99.90;;;;;;5051181;28;20067;-66
2023/04/16 01:19:39;;;;;;;32.35;16.08;;;8.40;99.90;;;;;;5049692;28;20437;-66
2023/04/16 01:22:05;;;;;;;32.63;16.23;;;8.50;99.90;;;;;;5034028;28;20037;-66
2023/04/16 01:24:31;;;;;;;31.08;16.27;;;8.50;99.90;;;;;;5032705;28;20139;-66
2023/04/16 01:26:58;;;;;;;30.33;14.65;;;8.50;99.90;;;;;;5051957;28;20041;-66
2023/04/16 01:29:24;;;;;;;32.47;16.35;;;8.40;99.90;;;;;;5033232;28;20120;-66
2023/04/16 01:31:49;;;;;;;31.10;16.05;;;8.40;99.90;;;;;;5049960;28;20120;-66
2023/04/16 01:34:15;;;;;;;33.30;15.23;;;8.50;99.90;;;;;;5050166;28;20051;-67
2023/04/16 01:36:41;;;;;;;26.10;15.30;;;8.40;99.90;;;;;;5051715;28;20053;-66
2023/04/16 01:39:10;;;;;;;37.00;17.02;;;8.50;99.90;;;;;;5033453;28;20124;-66
2023/04/16 01:41:36;;;;;;;36.90;17.63;;;8.40;99.90;;;;;;5049568;28;20073;-66
2023/04/16 01:44:01;;;;;;;37.20;17.38;;;8.40;99.90;;;;;;5033781;28;20045;-66
2023/04/16 01:46:29;;;;;;;33.47;16.52;;;8.40;99.90;;;;;;5048889;28;20045;-66
2023/04/16 01:48:55;;;;;;;32.72;16.45;;;8.40;99.90;;;;;;5051517;28;20072;-66
2023/04/16 01:51:21;;;;;;;39.60;18.90;;;8.40;99.90;;;;;;5049440;28;20052;-66
2023/04/16 01:53:46;;;;;;;36.38;17.38;;;8.40;99.90;;;;;;5049428;28;20045;-66
2023/04/16 01:56:12;;;;;;;38.55;17.23;;;8.40;99.90;;;;;;5051755;28;20045;-66
2023/04/16 01:58:38;;;;;;;36.55;17.67;;;8.40;99.90;;;;;;5053507;28;20033;-66
2023/04/16 02:01:04;;;;;;;42.13;18.27;;;8.40;99.90;;;;;;5053078;28;20056;-66
2023/04/16 02:03:30;;;;;;;40.40;18.15;;;8.40;99.90;;;;;;5036622;28;20048;-66
2023/04/16 02:05:56;;;;;;;57.63;19.38;;;8.40;99.90;;;;;;5054180;28;20102;-66
2023/04/16 02:08:22;;;;;;;36.22;18.15;;;8.40;99.90;;;;;;5035974;28;20036;-66
2023/04/16 02:10:51;;;;;;;45.03;19.13;;;8.40;99.90;;;;;;5053878;28;20033;-66
2023/04/16 02:13:17;;;;;;;48.30;19.50;;;8.40;99.90;;;;;;5053255;28;20048;-66
2023/04/16 02:15:49;;;;;;;46.15;20.08;;;8.40;99.90;;;;;;5036114;28;20041;-66
2023/04/16 02:18:15;;;;;;;45.78;19.13;;;8.40;99.90;;;;;;5053486;28;20045;-66
2023/04/16 02:20:43;;;;;;;46.28;17.95;;;8.40;99.90;;;;;;5052742;28;20043;-66
2023/04/16 02:23:09;;;;;;;40.10;17.83;;;8.40;99.90;;;;;;5036889;28;20045;-66
2023/04/16 02:25:40;;;;;;;35.05;17.00;;;8.40;99.90;;;;;;5053111;28;20045;-66
2023/04/16 02:28:07;;;;;;;43.88;19.13;;;8.50;99.90;;;;;;5052989;28;20390;-66
2023/04/16 02:30:34;;;;;;;43.55;17.42;;;8.40;99.90;;;;;;5053158;28;20466;-66
2023/04/16 02:33:02;;;;;;;48.58;20.17;;;8.40;99.90;;;;;;5036773;28;20501;-66
2023/04/16 02:35:28;;;;;;;44.10;18.58;;;8.40;99.90;;;;;;5051971;28;20041;-66
2023/04/16 02:37:53;;;;;;;41.33;19.75;;;8.40;99.90;;;;;;5036698;28;20128;-66
2023/04/16 02:40:19;;;;;;;47.13;20.23;;;8.40;99.90;;;;;;5052907;28;20393;-66
2023/04/16 02:42:45;;;;;;;39.35;18.30;;;8.40;99.90;;;;;;5052037;28;20060;-66
2023/04/16 02:45:11;;;;;;;49.35;19.50;;;8.40;99.90;;;;;;5053131;28;20106;-66
2023/04/16 02:47:36;;;;;;;45.33;18.45;;;8.40;99.90;;;;;;5036379;28;20079;-66
2023/04/16 02:50:02;;;;;;;44.25;18.73;;;8.40;99.90;;;;;;5053601;28;20086;-66
2023/04/16 02:52:28;;;;;;;46.40;20.67;;;8.40;99.90;;;;;;5035789;28;20029;-66
2023/04/16 02:54:53;;;;;;;48.85;20.13;;;8.40;99.90;;;;;;5052993;28;20041;-66
2023/04/16 02:57:19;;;;;;;46.08;19.88;;;8.40;99.90;;;;;;5053061;28;20158;-66
2023/04/16 02:59:45;;;;;;;42.00;18.20;;;8.40;99.90;;;;;;5054037;28;20126;-66
2023/04/16 03:02:11;;;;;;;38.00;19.10;;;8.40;99.90;;;;;;5054421;28;20044;-66
2023/04/16 03:04:36;;;;;;;38.35;20.70;;;8.40;99.90;;;;;;5051646;28;20029;-66
2023/04/16 03:07:02;;;;;;;38.33;18.17;;;8.50;99.90;;;;;;5052303;28;20399;-66
2023/04/16 03:09:27;;;;;;;44.38;17.75;;;8.50;99.90;;;;;;5052303;28;20033;-66
2023/04/16 03:11:53;;;;;;;43.63;18.65;;;8.50;99.90;;;;;;5052139;28;20040;-66
2023/04/16 03:14:19;;;;;;;34.72;17.23;;;8.40;99.90;;;;;;5053549;28;20040;-66
2023/04/16 03:16:45;;;;;;;41.10;18.52;;;8.40;99.90;;;;;;5034998;28;20047;-66
2023/04/16 03:19:10;;;;;;;44.10;17.58;;;8.40;99.90;;;;;;5052700;28;20120;-66
2023/04/16 03:21:36;;;;;;;41.28;17.02;;;8.40;99.90;;;;;;5053279;28;20055;-66
2023/04/16 03:24:01;;;;;;;45.78;18.83;;;8.40;99.90;;;;;;5052917;28;20457;-66
2023/04/16 03:26:27;;;;;;;43.22;16.17;;;8.40;99.90;;;;;;5051943;28;20045;-66
2023/04/16 03:28:53;;;;;;;36.47;17.58;;;8.40;99.90;;;;;;5052385;28;20461;-66
2023/04/16 03:31:18;;;;;;;40.72;17.98;;;8.40;99.90;;;;;;5051284;28;20129;-66
2023/04/16 03:33:44;;;;;;;46.88;18.73;;;8.40;99.90;;;;;;5052056;28;20041;-66
2023/04/16 03:36:10;;;;;;;36.25;16.75;;;8.40;99.90;;;;;;5053293;28;20045;-66
2023/04/16 03:38:35;;;;;;;40.05;17.05;;;8.40;99.90;;;;;;5050642;28;20045;-66
2023/04/16 03:41:01;;;;;;;37.92;16.88;;;8.40;99.90;;;;;;5053182;28;20055;-66
2023/04/16 03:43:27;;;;;;;41.55;17.50;;;8.40;99.90;;;;;;5051464;28;20057;-66
2023/04/16 03:45:52;;;;;;;43.33;17.88;;;8.40;99.90;;;;;;5051454;28;20450;-66
2023/04/16 03:48:18;;;;;;;42.03;16.67;;;8.40;99.90;;;;;;5051834;28;20037;-66
2023/04/16 03:50:47;;;;;;;32.33;16.15;;;8.40;99.90;;;;;;5034695;28;20041;-66
2023/04/16 03:53:13;;;;;;;37.92;17.27;;;8.40;99.90;;;;;;5034345;28;20436;-66
2023/04/16 03:55:40;;;;;;;46.67;17.02;;;8.40;99.90;;;;;;5033850;28;20545;-66
2023/04/16 03:58:05;;;;;;;41.05;15.80;;;8.40;99.90;;;;;;5052944;28;20083;-66
2023/04/16 04:00:31;;;;;;;37.72;16.05;;;8.40;99.90;;;;;;5050288;28;20478;-66
2023/04/16 04:02:57;;;;;;;41.42;17.25;;;8.40;99.90;;;;;;5051304;28;20037;-66
2023/04/16 04:05:23;;;;;;;33.10;16.02;;;8.40;99.90;;;;;;5051131;28;20397;-66
2023/04/16 04:07:48;;;;;;;43.08;16.63;;;8.40;99.90;;;;;;5034322;28;20235;-66
2023/04/16 04:10:15;;;;;;;35.08;15.52;;;8.40;99.90;;;;;;5052977;28;20044;-66
2023/04/16 04:12:40;;;;;;;35.80;16.58;;;8.40;99.90;;;;;;5051456;28;20611;-66
2023/04/16 04:15:07;;;;;;;37.53;16.98;;;8.40;99.90;;;;;;5034040;28;20123;-66
2023/04/16 04:17:32;;;;;;;32.45;15.93;;;8.40;99.90;;;;;;5051258;28;20040;-66
2023/04/16 04:19:58;;;;;;;39.20;16.67;;;8.40;99.90;;;;;;5050557;28;20497;-66
2023/04/16 04:22:23;;;;;;;42.00;17.05;;;8.40;99.90;;;;;;5033685;28;20497;-66
2023/04/16 04:24:49;;;;;;;50.03;17.23;;;8.40;99.90;;;;;;5051278;28;20055;-66
2023/04/16 04:27:15;;;;;;;42.00;18.35;;;8.40;99.90;;;;;;5050410;28;20041;-66
2023/04/16 04:29:40;;;;;;;51.53;19.88;;;8.40;99.90;;;;;;5052073;28;20405;-66
2023/04/16 04:32:06;;;;;;;49.53;18.90;;;8.40;99.90;;;;;;5052642;28;20405;-66
2023/04/16 04:34:32;;;;;;;43.53;18.05;;;8.40;99.90;;;;;;5033209;28;20482;-66
2023/04/16 04:36:58;;;;;;;50.25;18.63;;;8.40;99.90;;;;;;5051176;28;20048;-66
2023/04/16 04:39:23;;;;;;;46.42;17.25;;;8.40;99.90;;;;;;5051664;28;20091;-66
2023/04/16 04:41:49;;;;;;;54.17;19.38;;;8.40;99.90;;;;;;5049772;28;20458;-66
2023/04/16 04:44:15;;;;;;;47.47;19.23;;;8.50;99.90;;;;;;5050861;28;20056;-66
2023/04/16 04:46:40;;;;;;;50.40;18.10;;;8.50;99.90;;;;;;5052038;28;20060;-65
2023/04/16 04:49:06;;;;;;;48.05;18.30;;;8.50;99.90;;;;;;5050888;28;20056;-66
2023/04/16 04:51:32;;;;;;;49.03;17.60;;;8.50;99.90;;;;;;5033273;28;20037;-66
2023/04/16 04:53:58;;;;;;;42.90;17.63;;;8.50;99.90;;;;;;5051231;28;20049;-66
2023/04/16 04:56:23;;;;;;;54.42;19.20;;;8.50;99.90;;;;;;5049203;28;20033;-66
2023/04/16 04:58:50;;;;;;;43.72;17.40;;;8.50;99.90;;;;;;5034207;28;20078;-66
2023/04/16 05:01:16;;;;;;;35.83;16.15;;;8.50;99.90;;;;;;5050350;28;20104;-66
2023/04/16 05:03:41;;;;;;;39.38;17.40;;;8.50;99.90;;;;;;5043165;28;20041;-66
2023/04/16 05:06:07;;;;;;;48.03;16.65;;;8.50;99.90;;;;;;5031679;28;20041;-66
2023/04/16 05:08:33;;;;;;;43.25;18.80;;;8.50;99.90;;;;;;5047647;28;20083;-66
2023/04/16 05:10:59;;;;;;;40.92;17.17;;;8.50;99.90;;;;;;5047236;28;20505;-66
2023/04/16 05:13:25;;;;;;;58.95;20.92;;;8.50;99.90;;;;;;5047414;28;20049;-66
2023/04/16 05:15:50;;;;;;;48.65;20.70;;;8.50;99.90;;;;;;5047931;28;20033;-66
2023/04/16 05:18:16;;;;;;;39.85;18.42;;;8.60;99.90;;;;;;5046950;28;20556;-66
2023/04/16 05:20:41;;;;;;;48.35;19.95;;;8.60;99.90;;;;;;5048727;28;20124;-66
2023/04/16 05:23:07;;;;;;;44.50;17.60;;;8.60;99.90;;;;;;5047975;28;20052;-66
2023/04/16 05:25:33;;;;;;;48.53;18.48;;;8.60;99.90;;;;;;5046698;28;20367;-66
2023/04/16 05:27:59;;;;;;;48.42;19.75;;;8.60;99.90;;;;;;5049276;28;20040;-66
2023/04/16 05:30:24;;;;;;;54.17;19.50;;;8.60;99.90;;;;;;5047838;28;20041;-66
2023/04/16 05:32:50;;;;;;;47.75;18.90;;;8.60;99.90;;;;;;5052268;28;20029;-66
2023/04/16 05:35:16;;;;;;;49.38;19.77;;;8.60;99.90;;;;;;5051338;28;20178;-66
2023/04/16 05:37:41;;;;;;;38.55;18.45;;;8.60;99.90;;;;;;5051476;28;20048;-66
2023/04/16 05:40:08;;;;;;;44.42;17.45;;;8.70;99.90;;;;;;5034913;28;20041;-66
2023/04/16 05:42:33;;;;;;;48.58;19.55;;;8.70;99.90;;;;;;5050709;28;20128;-66
2023/04/16 05:45:03;;;;;;;47.22;19.15;;;8.70;99.90;;;;;;5050815;28;20450;-66
2023/04/16 05:47:28;;;;;;;40.83;18.27;;;8.70;99.90;;;;;;5067722;28;20037;-66
2023/04/16 05:49:54;;;;;;;38.97;17.67;;;8.70;99.90;;;;;;5051155;28;20033;-66
2023/04/16 05:52:19;;;;;;;52.53;20.45;;;8.60;99.90;;;;;;5033693;28;20041;-66
2023/04/16 05:54:45;;;;;;;42.88;18.60;;;8.70;99.90;;;;;;5054147;28;20041;-66
2023/04/16 05:57:12;;;;;;;50.85;18.40;;;8.70;99.90;;;;;;5055646;28;20045;-66
2023/04/16 05:59:38;;;;;;;49.67;18.95;;;8.70;99.90;;;;;;5052878;28;20041;-66
2023/04/16 06:02:04;;;;;;;42.70;18.40;;;8.70;99.90;;;;;;5053141;28;20387;-65
2023/04/16 06:04:29;;;;;;;39.05;18.15;;;8.70;99.90;;;;;;5036629;28;20067;-66
2023/04/16 06:06:55;;;;;;;36.75;16.10;;;8.80;99.90;;;;;;5036501;28;20037;-66
2023/04/16 06:09:21;;;;;;;40.63;15.10;;;8.70;99.90;;;;;;5036576;28;20033;-65
2023/04/16 06:11:47;;;;;;;38.70;15.82;;;8.70;99.90;;;;;;5053868;28;20514;-64
2023/04/16 06:14:13;;;;;;;41.33;16.83;;;8.80;99.90;;;;;;5054617;28;20393;-64
2023/04/16 06:16:39;;;;;;;43.60;15.90;;;8.70;99.90;;;;;;5053056;28;20040;-64
2023/04/16 06:19:05;;;;;;;45.55;15.57;;;8.70;99.90;;;;;;5037073;28;20049;-64
2023/04/16 06:21:31;;;;;;;46.63;16.30;;;8.80;99.90;;;;;;5054027;28;20428;-64
2023/04/16 06:23:56;;;;;;;48.47;18.88;;;8.80;99.90;;;;;;5053532;28;20464;-64
2023/04/16 06:26:22;;;;;;;42.38;16.58;;;8.80;99.90;;;;;;5054469;28;20037;-64
2023/04/16 06:28:48;;;;;;;43.67;18.38;;;8.80;99.90;;;;;;5036275;28;20052;-64
2023/04/16 06:31:14;;;;;;;44.45;17.63;;;8.80;99.90;;;;;;5053472;28;20116;-64
2023/04/16 06:33:40;;;;;;;38.67;17.77;;;8.80;99.90;;;;;;5053510;28;20091;-65
2023/04/16 06:36:06;;;;;;;40.10;15.82;;;8.80;99.90;;;;;;5053411;28;20048;-65
2023/04/16 06:38:31;;;;;;;43.75;17.42;;;8.80;99.90;;;;;;5052642;28;20171;-64
2023/04/16 06:40:58;;;;;;;39.22;17.83;;;8.80;99.90;;;;;;5053847;28;20481;-65
2023/04/16 06:43:24;;;;;;;38.80;17.95;;;8.80;99.90;;;;;;5051773;28;20041;-65
2023/04/16 06:45:50;;;;;;;42.80;16.80;;;8.80;99.90;;;;;;5053219;28;20041;-64
2023/04/16 06:48:15;;;;;;;36.10;16.58;;;8.90;99.90;;;;;;5051993;28;20399;-64
2023/04/16 06:50:41;;;;;;;40.10;17.00;;;8.90;99.90;;;;;;5052972;28;20047;-65
2023/04/16 06:53:07;;;;;;;34.10;15.07;;;8.90;99.90;;;;;;5053401;28;20127;-65
2023/04/16 06:55:32;;;;;;;35.50;14.88;;;8.90;99.90;;;;;;5035009;28;20047;-64
2023/04/16 06:57:58;;;;;;;36.47;14.65;;;8.90;99.90;;;;;;5054458;28;20045;-64
2023/04/16 07:00:24;;;;;;;32.22;14.45;;;8.90;99.90;;;;;;5052454;28;20103;-64
2023/04/16 07:02:49;;;;;;;29.95;14.32;;;8.90;99.90;;;;;;5053206;28;20067;-64
2023/04/16 07:05:15;;;;;;;34.03;16.60;;;8.90;99.90;;;;;;5053936;28;20155;-64
2023/04/16 07:07:41;;;;;;;34.83;15.35;;;8.90;99.90;;;;;;5052458;28;20055;-64
2023/04/16 07:10:07;;;;;;;30.02;12.60;;;8.90;99.90;;;;;;5053295;28;20094;-64
2023/04/16 07:12:33;;;;;;;34.47;13.25;;;9.00;99.90;;;;;;5052298;28;20033;-63
2023/04/16 07:14:58;;;;;;;32.28;13.98;;;9.00;99.90;;;;;;5054003;28;20047;-64
2023/04/16 07:17:24;;;;;;;35.28;14.18;;;9.00;99.90;;;;;;5034547;28;20045;-64
2023/04/16 07:19:51;;;;;;;37.22;14.27;;;9.00;99.90;;;;;;5035941;28;20094;-63
2023/04/16 07:22:16;;;;;;;39.40;15.20;;;9.00;99.90;;;;;;5052337;28;20444;-64
2023/04/16 07:24:42;;;;;;;28.42;14.65;;;9.00;99.90;;;;;;5048239;28;20045;-64
2023/04/16 07:27:08;;;;;;;37.42;16.92;;;8.90;99.90;;;;;;5043862;28;20037;-63
2023/04/16 07:29:33;;;;;;;33.97;14.32;;;9.00;99.90;;;;;;5051419;28;20028;-63
2023/04/16 07:31:59;;;;;;;39.72;13.88;;;9.00;99.90;;;;;;5034466;28;20494;-63
2023/04/16 07:34:25;;;;;;;43.00;15.15;;;9.00;99.90;;;;;;5051755;28;20049;-64
2023/04/16 07:36:50;;;;;;;30.23;14.10;;;9.10;99.90;;;;;;5052239;28;20040;-64
2023/04/16 07:39:16;;;;;;;34.50;13.85;;;9.00;99.90;;;;;;5051090;28;20040;-63
2023/04/16 07:41:42;;;;;;;31.92;16.63;;;9.10;99.90;;;;;;5035376;28;20053;-64
2023/04/16 07:44:08;;;;;;;30.38;13.75;;;9.10;99.90;;;;;;5045347;28;20081;-64
2023/04/16 07:46:34;;;;;;;36.42;14.90;;;9.10;99.90;;;;;;5050973;28;20061;-64
2023/04/16 07:49:00;;;;;;;39.63;14.02;;;9.10;99.90;;;;;;5052006;28;20142;-64
2023/04/16 07:51:26;;;;;;;35.22;15.95;;;9.10;99.90;;;;;;5051817;28;20044;-64
2023/04/16 07:53:51;;;;;;;38.42;14.60;;;9.20;99.90;;;;;;5035046;28;20040;-64
2023/04/16 07:56:17;;;;;;;46.80;17.23;;;9.20;99.90;;;;;;5034489;28;20462;-64
2023/04/16 07:58:43;;;;;;;39.70;14.75;;;9.20;99.90;;;;;;5050619;28;20041;-64
2023/04/16 08:01:08;;;;;;;40.25;15.40;;;9.20;99.90;;;;;;5051970;28;20045;-64
2023/04/16 08:03:34;;;;;;;42.63;15.02;;;9.30;99.90;;;;;;5048944;28;20049;-64
2023/04/16 08:06:00;;;;;;;43.05;14.48;;;9.30;99.90;;;;;;5032146;28;20068;-64
2023/04/16 08:08:25;;;;;;;39.20;14.75;;;9.30;99.90;;;;;;5032587;28;20494;-64
2023/04/16 08:10:54;;;;;;;32.47;13.93;;;9.30;99.90;;;;;;5031664;28;20499;-64
2023/04/16 08:13:22;;;;;;;44.15;14.93;;;9.40;99.90;;;;;;5042042;28;20044;-64
2023/04/16 08:15:47;;;;;;;37.40;15.48;;;9.40;99.90;;;;;;5051570;28;20435;-64
2023/04/16 08:18:14;;;;;;;36.58;14.73;;;9.40;99.90;;;;;;5052081;28;20103;-65
2023/04/16 08:20:40;;;;;;;31.15;14.27;;;9.40;99.90;;;;;;5033507;28;20044;-65
2023/04/16 08:23:06;;;;;;;35.08;13.85;;;9.40;99.90;;;;;;5052734;28;20090;-65
2023/04/16 08:25:32;;;;;;;29.08;13.98;;;9.40;99.90;;;;;;5033979;28;20436;-65
2023/04/16 08:27:57;;;;;;;32.85;15.25;;;9.40;99.90;;;;;;5049915;28;20091;-65
2023/04/16 08:30:23;;;;;;;30.48;15.25;;;9.50;99.90;;;;;;5021702;28;20037;-64
2023/04/16 08:32:49;;;;;;;33.58;14.55;;;9.50;99.90;;;;;;5051210;28;20068;-65
2023/04/16 08:35:15;;;;;;;32.08;14.48;;;9.60;99.90;;;;;;5050418;28;20052;-65
2023/04/16 08:37:40;;;;;;;31.52;15.15;;;9.60;99.90;;;;;;5050010;28;20041;-65
2023/04/16 08:40:07;;;;;;;35.40;14.52;;;9.60;99.90;;;;;;5052326;28;20045;-65
2023/04/16 08:42:44;;;;;;;34.47;13.77;;;9.60;99.90;;;;;;5031801;28;20171;-65
2023/04/16 08:45:19;;;;;;;33.90;15.48;;;9.70;99.90;;;;;;5052066;28;20166;-65
2023/04/16 08:47:46;;;;;;;31.33;15.15;;;9.70;99.90;;;;;;5051410;28;20045;-64
2023/04/16 08:50:17;;;;;;;29.30;14.57;;;9.70;99.90;;;;;;5034263;28;20033;-65
2023/04/16 08:52:51;;;;;;;38.65;14.07;;;9.80;99.90;;;;;;5051052;28;20091;-65
2023/04/16 08:55:39;;;;;;;40.08;16.27;;;9.90;99.90;;;;;;5032920;28;20048;-65
2023/04/16 08:58:14;;;;;;;41.90;16.08;;;9.90;99.90;;;;;;5051013;28;20037;-65
2023/04/16 09:00:40;;;;;;;37.15;15.55;;;9.90;99.90;;;;;;5035675;28;20123;-64
2023/04/16 09:03:07;;;;;;;29.27;15.65;;;10.00;99.90;;;;;;5033330;28;20056;-65
2023/04/16 09:05:33;;;;;;;27.58;14.65;;;10.00;99.90;;;;;;5049920;28;20045;-65
2023/04/16 09:07:59;;;;;;;39.33;17.27;;;10.00;99.90;;;;;;5049846;28;20386;-65
2023/04/16 09:10:34;;;;;;;41.53;16.20;;;10.10;99.90;;;;;;5049294;28;20037;-64
2023/04/16 09:13:00;;;;;;;;;;;10.10;99.90;;;;;;5034336;28;20416;-65
2023/04/16 09:15:26;;;;;;;35.55;14.43;;;10.10;99.90;;;;;;5050984;28;20047;-65
2023/04/16 09:17:53;;;;;;;32.10;14.80;;;10.10;99.90;;;;;;5050731;28;20080;-65
2023/04/16 09:20:19;;;;;;;33.17;15.18;;;10.10;99.90;;;;;;5050354;28;20052;-65
2023/04/16 09:22:45;;;;;;;37.88;14.85;;;10.10;99.90;;;;;;5051024;28;20043;-65
2023/04/16 09:25:12;;;;;;;32.72;14.77;;;10.10;99.90;;;;;;5050218;28;20458;-65
2023/04/16 09:27:38;;;;;;;35.13;15.23;;;10.10;99.90;;;;;;5033139;28;20037;-65
2023/04/16 09:30:24;;;;;;;33.63;17.23;;;10.10;99.90;;;;;;5049566;28;20040;-65
2023/04/16 09:32:52;;;;;;;39.15;15.13;;;10.20;99.90;;;;;;5052723;28;20037;-65
2023/04/16 09:35:20;;;;;;;36.83;15.70;;;10.20;99.90;;;;;;5049650;28;20040;-65
2023/04/16 09:37:56;;;;;;;37.25;16.92;;;10.20;99.90;;;;;;5049818;28;20123;-65
2023/04/16 09:40:29;;;;;;;42.67;17.98;;;10.20;99.90;;;;;;5049614;28;20041;-64
2023/04/16 09:42:57;;;;;;;36.95;16.48;;;10.30;99.90;;;;;;5050049;28;20049;-64
2023/04/16 09:45:23;;;;;;;32.75;16.50;;;10.30;99.90;;;;;;5049180;28;20391;-64
2023/04/16 09:47:48;;;;;;;38.58;15.90;;;10.30;99.90;;;;;;5033623;28;20036;-64
2023/04/16 09:50:17;;;;;;;35.05;15.73;;;10.40;99.90;;;;;;5050974;28;20052;-65
2023/04/16 09:52:44;;;;;;;29.90;15.00;;;10.40;99.90;;;;;;5050796;28;20086;-65
2023/04/16 09:55:10;;;;;;;33.88;15.48;;;10.40;99.90;;;;;;5051243;28;20048;-65
2023/04/16 09:57:37;;;;;;;29.95;14.50;;;10.40;99.90;;;;;;5048893;28;20090;-65
2023/04/16 10:00:06;;;;;;;35.88;15.77;;;10.40;99.90;;;;;;5049991;28;20041;-65
2023/04/16 10:02:33;;;;;;;28.50;15.25;;;10.50;99.90;;;;;;5032772;28;20037;-65
2023/04/16 10:05:01;;;;;;;30.67;16.33;;;10.50;99.90;;;;;;5049207;28;20037;-65
2023/04/16 10:07:28;;;;;;;30.67;14.55;;;10.60;99.90;;;;;;5049319;28;20079;-65
2023/04/16 10:09:54;;;;;;;24.98;14.98;;;10.60;99.90;;;;;;5049997;28;20075;-65
2023/04/16 10:12:20;;;;;;;35.08;16.33;;;10.60;99.90;;;;;;5049998;28;20124;-65
2023/04/16 10:14:46;;;;;;;39.63;17.77;;;10.60;99.90;;;;;;5050224;28;20128;-65
2023/04/16 10:17:12;;;;;;;36.10;15.55;;;10.50;99.90;;;;;;5049912;28;20045;-65
2023/04/16 10:19:38;;;;;;;34.80;15.70;;;10.50;99.90;;;;;;5034309;28;20036;-65
2023/04/16 10:22:03;;;;;;;30.00;15.32;;;10.50;99.90;;;;;;5053328;28;20403;-65
2023/04/16 10:24:30;;;;;;;26.05;13.23;;;10.40;99.90;;;;;;5053271;28;20090;-65
2023/04/16 10:26:56;;;;;;;22.45;13.30;;;10.40;99.90;;;;;;5053851;28;20120;-65
2023/04/16 10:29:24;;;;;;;23.27;13.40;;;10.50;99.90;;;;;;5069254;28;20128;-65
2023/04/16 10:31:50;;;;;;;25.58;13.10;;;10.40;99.90;;;;;;5052954;28;20044;-65
2023/04/16 10:34:17;;;;;;;25.52;14.27;;;10.40;99.90;;;;;;5052632;28;20086;-65
2023/04/16 10:36:48;;;;;;;31.80;14.27;;;10.40;99.90;;;;;;5052968;28;20387;-66
2023/04/16 10:39:22;;;;;;;31.30;14.80;;;10.40;99.90;;;;;;5040891;28;20379;-65
2023/04/16 10:41:49;;;;;;;34.83;14.57;;;10.50;99.90;;;;;;5016074;28;20088;-66
2023/04/16 10:44:17;;;;;;;32.00;14.18;;;10.50;99.90;;;;;;5032918;28;20049;-66
2023/04/16 10:46:50;;;;;;;27.25;13.27;;;10.50;99.90;;;;;;5048073;28;20045;-65
2023/04/16 10:49:20;;;;;;;28.10;14.25;;;10.40;99.90;;;;;;5053276;28;20276;-65
2023/04/16 10:51:57;;;;;;;35.67;15.20;;;10.40;99.90;;;;;;5052386;28;20049;-65
2023/04/16 10:54:28;;;;;;;29.75;14.52;;;10.50;99.90;;;;;;5035061;28;20097;-66
2023/04/16 10:56:56;;;;;;;33.35;14.85;;;10.50;99.90;;;;;;5053283;28;20044;-67
2023/04/16 10:59:23;;;;;;;23.83;12.70;;;10.60;99.90;;;;;;5052381;28;20123;-68
2023/04/16 11:01:52;;;;;;;30.20;14.40;;;10.60;99.90;;;;;;5034932;28;20045;-67
2023/04/16 11:04:23;;;;;;;25.38;14.18;;;10.60;99.90;;;;;;5052552;28;20371;-68
2023/04/16 11:07:18;;;;;;;30.55;13.82;;;10.60;99.90;;;;;;5053898;28;20044;-66
2023/04/16 11:10:05;;;;;;;29.65;13.88;;;10.60;99.90;;;;;;5028356;28;20045;-71
2023/04/16 11:12:33;;;;;;;30.63;14.40;;;10.60;99.90;;;;;;5051389;28;20037;-68
2023/04/16 11:15:01;;;;;;;36.47;15.68;;;10.60;99.90;;;;;;5051930;28;20509;-68
2023/04/16 11:17:41;;;;;;;35.83;15.50;;;10.60;99.90;;;;;;5035211;28;20060;-68
2023/04/16 11:20:27;;;;;;;33.15;14.27;;;10.60;99.90;;;;;;5036314;28;20393;-68
2023/04/16 11:22:55;;;;;;;30.48;12.68;;;10.60;99.90;;;;;;5034708;28;20049;-68
2023/04/16 11:25:26;;;;;;;30.13;13.32;;;10.60;99.90;;;;;;5052143;28;20469;-68
2023/04/16 11:27:52;;;;;;;23.88;14.00;;;10.60;99.90;;;;;;5036061;28;20048;-68
2023/04/16 11:30:26;;;;;;;31.42;12.95;;;10.70;99.90;;;;;;5050912;28;20047;-68
2023/04/16 11:32:52;;;;;;;24.35;13.95;;;10.70;99.90;;;;;;5052426;28;20555;-69
2023/04/16 11:35:18;;;;;;;25.35;12.95;;;10.70;99.90;;;;;;5051998;28;20045;-69
2023/04/16 11:37:44;;;;;;;30.00;13.85;;;10.70;99.90;;;;;;5052233;28;20033;-68
2023/04/16 11:40:11;;;;;;;24.58;13.48;;;10.70;99.90;;;;;;5060585;28;20401;-66
2023/04/16 11:42:41;;;;;;;23.63;13.73;;;10.70;99.90;;;;;;5052482;28;20148;-65
2023/04/16 11:45:08;;;;;;;27.00;14.57;;;10.80;99.90;;;;;;5051460;28;20394;-65
2023/04/16 11:47:51;;;;;;;25.45;13.95;;;10.90;99.90;;;;;;5050893;28;20033;-65
2023/04/16 11:50:25;;;;;;;27.38;12.93;;;11.00;99.90;;;;;;5029864;28;20052;-65
2023/04/16 11:52:55;;;;;;;24.83;14.68;;;11.00;99.90;;;;;;5049778;28;20151;-65
2023/04/16 11:55:22;;;;;;;25.73;13.48;;;11.00;99.90;;;;;;5050030;28;20036;-65
2023/04/16 11:57:49;;;;;;;31.63;16.42;;;11.10;99.90;;;;;;5049599;28;20090;-65
2023/04/16 12:00:15;;;;;;;23.20;13.82;;;11.20;99.90;;;;;;5046234;28;20346;-65
2023/04/16 12:02:43;;;;;;;21.15;13.38;;;11.20;99.90;;;;;;5048666;28;20111;-65
2023/04/16 12:05:33;;;;;;;29.63;13.52;;;11.30;99.90;;;;;;5047339;28;20069;-65
2023/04/16 12:08:07;;;;;;;30.45;14.20;;;11.30;99.90;;;;;;5032471;28;20064;-65
2023/04/16 12:10:34;;;;;;;29.17;15.20;;;11.40;99.90;;;;;;5031823;28;20560;-65
2023/04/16 12:13:14;;;;;;;28.30;12.30;;;11.40;99.90;;;;;;5047099;28;20041;-67
2023/04/16 12:15:58;;;;;;;22.10;13.20;;;11.50;99.90;;;;;;5049019;28;20041;-68
2023/04/16 12:18:27;;;;;;;24.48;13.38;;;11.60;99.90;;;;;;5048125;28;20033;-67
2023/04/16 12:20:53;;;;;;;28.65;13.52;;;11.60;99.90;;;;;;5050397;28;20033;-65
2023/04/16 12:23:26;;;;;;;29.17;14.98;;;11.60;99.90;;;;;;5048377;28;20516;-65
2023/04/16 12:25:53;;;;;;;26.00;13.80;;;11.60;99.90;;;;;;5030911;28;20132;-65
2023/04/16 12:28:33;;;;;;;32.90;14.45;;;11.60;99.90;;;;;;5049416;28;20037;-65
2023/04/16 12:30:59;;;;;;;24.73;14.30;;;11.60;99.90;;;;;;5031980;28;20048;-65
2023/04/16 12:33:25;;;;;;;29.00;15.02;;;11.60;99.90;;;;;;5030862;28;20048;-65